Aérodrome :
LOGIN :

S'inscrire | Disclaimer

   EN    FR    IT 

 










Légende :    VFR   VFR Marginal   IFR   IFR Intensif   IFR Très Intensif
Visi : 
Plafond : 
>= 8 km
>= 3000ft
5 à 8 km
1000 à 3000 ft
1500m à 5 km
500 à 1000 ft
800 à 1500m
200 à 500 ft
< 800m
< 200 ft
Symboles :   Orages  Brouillard  Fortes neiges  Fortes précipitations  Vent > 20 kt
SIGMETs :   Divers  Orages  Givrage  Turbulence  Onde Orograph.  Cendres Volcan.






- Altitude de l'aérodrome : 16 ft
- Code IATA : SDR


LEXJ - Santander Cantabria

DERNIER METAR :
  • 221200Z 22016KT 160V270 9999 FEW070 16/09 Q0984

METARs EXPIRÉS :
  • 221130Z 21016G27KT 180V250 9999 -RA SCT070 16/08 Q0985
  • 221100Z 22021G35KT 170V260 9999 FEW070 16/07 Q0986
  • 221030Z 22023G39KT 170V260 9999 FEW070 16/07 Q0986
  • 221000Z 22015G31KT 140V270 9999 FEW070 16/07 Q0986
  • 220930Z 21019G31KT 170V260 9999 FEW070 15/06 Q0987

TAF TAF LEXJ
Valide du 22 à 09h jusqu'au 23 à 09h UTC


220800Z 2209/2309 22009KT 9999 FEW025 SCT040 TX15/2214Z TN10/2303Z
TEMPO 2209/2215 19016G28KT
TEMPO 2209/2215 23022G38KT
PROB40
TEMPO 2209/2215 23025G45KT
BECMG 2300/2302 28015KT
TEMPO 2300/2309 27020G35KT
PROB40
TEMPO 2209/2212 RA
TEMPO 2300/2309 3000 RA SHRA BKN010 SCT030TCU



MET'MAP, la Météo Aéronautique d'un coup d'oeil ! - Copyright ORBIFLY Décembre 2007 - Disclaimer

ORBIFLY MET'MAP TEAM :

Programmation & Développement : Alexandra Zaïnal
Conception & Développement : Baudouin d'Aumeries
Co-Programmation & Développement : Marc-Olivier Méhu
Soutien technique & logistique : Manuel Goepfert

Contact : metmap@orbifly.com




SOURCES & CREDITS :

   NOAA